KDAG/DAG METAR and TAF weather

Enter ICAO airport designator
Station Type Date Time Source
KDAG METAR 2018/01/22 19:50 UTC NOAA

KDAG 221950Z AUTO 28003KT 10SM CLR 12/M09 A3029 RMK AO2 SLP256 T01221089


Station Type Date Time Source
KDAG Decoded METAR 2018/01/22 19:50 UTC NOAA

BARSTOW-DAGGETT AIRPORT, CA, United States (KDAG) 34-51N 116-47W 587M
Jan 22, 2018 - 02:50 PM EST / 2018.01.22 1950 UTC
Wind: from the W (280 degrees) at 3 MPH (3 KT):0
Visibility: 10 mile(s):0
Sky conditions: clear
Temperature: 54.0 F (12.2 C)
Dew Point: 16.0 F (-8.9 C)
Relative Humidity: 21%
Pressure (altimeter): 30.29 in. Hg (1025 hPa)
ob: KDAG 221950Z AUTO 28003KT 10SM CLR 12/M09 A3029 RMK AO2 SLP256 T01221089
cycle: 20

Station Type Date Time Source
KDAG TAF 2018/01/22 18:22 UTC NOAA

TAF KDAG 221720Z 2218/2318 28008KT P6SM SKC
FM222000 VRB05KT P6SM SKC
FM230600 27007KT P6SM SKC


Example: see airport list